Time;durP1;ratioP1;P1;durP2;ratioP2;P2;SDS_P1;SDS_P2;PMS_P1;PMS_P2;Temp;Humidity;BMP_temperature;BMP_pressure;BME280_temperature;BME280_humidity;BME280_pressure;Samples;Min_cycle;Max_cycle;Signal;HPM_P1;HPM_P2
2022/07/08 00:01:44;;;;;;;2.13;0.80;;;19.60;99.30;;;;;;5070476;28;20040;-96
2022/07/08 00:04:11;;;;;;;1.70;0.50;;;19.50;99.50;;;;;;5088123;28;20310;-95
2022/07/08 00:06:51;;;;;;;5.22;0.60;;;19.50;99.70;;;;;;5072601;28;20029;-95
2022/07/08 00:09:17;;;;;;;3.13;0.60;;;19.50;99.90;;;;;;5068817;28;20028;-96
2022/07/08 00:11:43;;;;;;;1.30;0.50;;;19.40;99.90;;;;;;5064955;28;20040;-96
2022/07/08 00:14:09;;;;;;;3.20;0.70;;;19.50;99.90;;;;;;5091126;28;20055;-93
2022/07/08 00:16:39;;;;;;;3.50;0.77;;;19.40;99.90;;;;;;5072101;28;20028;-94
2022/07/08 00:19:07;;;;;;;1.10;0.50;;;19.40;99.90;;;;;;5089997;28;20023;-96
2022/07/08 00:21:33;;;;;;;3.10;0.80;;;19.30;99.90;;;;;;5090936;28;20029;-96
2022/07/08 00:23:58;;;;;;;1.02;0.60;;;19.30;99.90;;;;;;5074065;28;20059;-96
2022/07/08 00:26:24;;;;;;;3.78;0.65;;;19.30;99.90;;;;;;5071460;28;20448;-95
2022/07/08 00:28:51;;;;;;;3.60;0.55;;;19.30;99.90;;;;;;5086093;28;20116;-96
2022/07/08 00:31:17;;;;;;;1.30;0.50;;;19.20;99.90;;;;;;5071555;28;20141;-95
2022/07/08 00:33:42;;;;;;;2.67;0.60;;;19.20;99.90;;;;;;5073177;28;20021;-96
2022/07/08 00:36:08;;;;;;;2.22;0.90;;;19.20;99.90;;;;;;5073162;28;20054;-95
2022/07/08 00:38:48;;;;;;;2.40;0.80;;;19.20;99.90;;;;;;5090758;28;20032;-96
2022/07/08 00:41:30;;;;;;;1.63;0.50;;;19.10;99.90;;;;;;5075447;28;20067;-91
2022/07/08 00:43:56;;;;;;;2.63;0.70;;;19.10;99.90;;;;;;5082260;28;20107;-86
2022/07/08 00:46:22;;;;;;;1.00;0.57;;;19.10;99.90;;;;;;5099990;28;20020;-82
2022/07/08 00:48:48;;;;;;;3.05;0.80;;;19.10;99.90;;;;;;5081733;28;20023;-95
2022/07/08 00:51:17;;;;;;;2.45;0.60;;;19.10;99.90;;;;;;5082649;28;20024;-89
2022/07/08 00:53:48;;;;;;;4.97;0.82;;;19.10;99.90;;;;;;5082339;28;20015;-96
2022/07/08 00:56:14;;;;;;;4.40;1.33;;;19.10;99.90;;;;;;5065072;28;20050;-96
2022/07/08 00:58:41;;;;;;;4.18;1.30;;;19.10;99.90;;;;;;5073079;28;20040;-96
2022/07/08 01:01:06;;;;;;;1.80;0.98;;;19.00;99.90;;;;;;5077255;28;20522;-95
2022/07/08 01:03:32;;;;;;;2.33;0.70;;;19.00;99.90;;;;;;5093985;28;20035;-96
2022/07/08 01:05:58;;;;;;;2.05;0.77;;;19.00;99.90;;;;;;5079327;28;20008;-96
2022/07/08 01:08:24;;;;;;;2.88;1.17;;;19.00;99.90;;;;;;5079652;28;20027;-95
2022/07/08 01:10:50;;;;;;;4.45;0.70;;;18.90;99.90;;;;;;5105307;28;20044;-85
2022/07/08 01:13:18;;;;;;;2.17;0.50;;;18.80;99.90;;;;;;5102543;28;20008;-84
2022/07/08 01:15:45;;;;;;;3.17;0.73;;;18.80;99.90;;;;;;5079487;28;20150;-95
2022/07/08 01:18:21;;;;;;;2.83;0.73;;;18.70;99.90;;;;;;5108344;28;20017;-93
2022/07/08 01:20:46;;;;;;;3.65;0.80;;;18.70;99.90;;;;;;5119520;28;20008;-89
2022/07/08 01:23:12;;;;;;;1.15;0.65;;;18.60;99.90;;;;;;5119023;28;20051;-87
2022/07/08 01:25:38;;;;;;;2.17;0.60;;;18.50;99.90;;;;;;5101615;28;20019;-86
2022/07/08 01:28:04;;;;;;;1.92;0.70;;;18.40;99.90;;;;;;5101663;28;20023;-94
2022/07/08 01:30:29;;;;;;;9.43;0.70;;;18.40;99.90;;;;;;5083498;28;20032;-93
2022/07/08 01:32:55;;;;;;;1.67;0.70;;;18.30;99.90;;;;;;5075093;28;20062;-94
2022/07/08 01:35:21;;;;;;;2.40;0.70;;;18.30;99.90;;;;;;5074678;28;20108;-94
2022/07/08 01:37:46;;;;;;;2.85;0.75;;;18.10;99.90;;;;;;5073444;28;20476;-94
2022/07/08 01:40:12;;;;;;;3.05;0.70;;;18.00;99.90;;;;;;5074272;28;20024;-94
2022/07/08 01:42:38;;;;;;;3.08;0.75;;;17.90;99.90;;;;;;5074325;28;20016;-94
2022/07/08 01:45:04;;;;;;;7.75;0.63;;;17.80;99.90;;;;;;5074696;28;20026;-94
2022/07/08 01:47:29;;;;;;;6.45;0.70;;;17.80;99.90;;;;;;5074733;28;20480;-93
2022/07/08 01:49:55;;;;;;;2.92;0.60;;;17.70;99.90;;;;;;5074553;28;20028;-94
2022/07/08 01:52:20;;;;;;;1.00;0.55;;;17.70;99.90;;;;;;5074215;28;20072;-94
2022/07/08 01:54:46;;;;;;;0.85;0.50;;;17.60;99.90;;;;;;5073927;28;20024;-95
2022/07/08 01:57:15;;;;;;;1.58;0.60;;;17.60;99.90;;;;;;5063442;28;20525;-93
2022/07/08 01:59:41;;;;;;;1.25;0.60;;;17.60;99.90;;;;;;5050871;28;20232;-95
2022/07/08 02:02:07;;;;;;;2.10;0.70;;;17.60;99.90;;;;;;5061907;28;20542;-94
2022/07/08 02:04:33;;;;;;;2.00;0.63;;;17.60;99.90;;;;;;5070667;28;20021;-95
2022/07/08 02:06:58;;;;;;;1.80;0.60;;;17.50;99.90;;;;;;5073502;28;20033;-93
2022/07/08 02:09:24;;;;;;;1.90;0.80;;;17.50;99.90;;;;;;5062563;28;20037;-93
2022/07/08 02:14:34;;;;;;;4.70;0.93;;;17.40;99.90;;;;;;5052891;28;20448;-94
2022/07/08 02:16:59;;;;;;;1.33;0.60;;;17.40;99.90;;;;;;5051635;28;20028;-93
2022/07/08 02:19:25;;;;;;;1.88;0.68;;;17.40;99.90;;;;;;5053006;28;20032;-95
2022/07/08 02:21:51;;;;;;;2.15;0.70;;;17.40;99.90;;;;;;5054337;28;20070;-95
2022/07/08 02:24:17;;;;;;;2.38;0.55;;;17.40;99.90;;;;;;5051678;28;20025;-93
2022/07/08 02:26:42;;;;;;;1.90;0.70;;;17.40;99.90;;;;;;5051901;28;20074;-94
2022/07/08 02:29:11;;;;;;;1.50;0.70;;;17.40;99.90;;;;;;5068213;28;20017;-91
2022/07/08 02:31:37;;;;;;;1.40;0.88;;;17.40;99.90;;;;;;5077057;28;20044;-94
2022/07/08 02:34:03;;;;;;;6.70;0.70;;;17.40;99.90;;;;;;5077896;28;20028;-86
2022/07/08 02:36:29;;;;;;;3.72;1.00;;;17.40;99.90;;;;;;5080550;28;20024;-93
2022/07/08 02:38:55;;;;;;;4.00;0.80;;;17.30;99.90;;;;;;5071309;28;20032;-85
2022/07/08 02:41:21;;;;;;;4.80;0.70;;;17.40;99.90;;;;;;5082028;28;20009;-84
2022/07/08 02:43:47;;;;;;;2.60;0.50;;;17.30;99.90;;;;;;5081300;28;20052;-87
2022/07/08 02:46:13;;;;;;;3.03;0.80;;;17.20;99.90;;;;;;5081032;28;20061;-92
2022/07/08 02:48:39;;;;;;;1.88;0.82;;;17.30;99.90;;;;;;5080479;28;20009;-93
2022/07/08 02:51:06;;;;;;;3.50;0.90;;;17.30;99.90;;;;;;5076913;28;20088;-96
2022/07/08 02:53:32;;;;;;;4.13;1.13;;;17.20;99.90;;;;;;5069074;28;20028;-95
2022/07/08 02:55:58;;;;;;;1.23;0.68;;;17.20;99.90;;;;;;5056915;28;20041;-96
2022/07/08 02:58:25;;;;;;;7.35;0.70;;;17.20;99.90;;;;;;5085454;28;20071;-96
2022/07/08 03:00:51;;;;;;;5.72;0.77;;;17.20;99.90;;;;;;5087904;28;20059;-94
2022/07/08 03:03:16;;;;;;;4.13;0.73;;;17.20;99.90;;;;;;5074269;28;20028;-94
2022/07/08 03:05:42;;;;;;;2.33;0.90;;;17.20;99.90;;;;;;5073162;28;20408;-93
2022/07/08 03:08:08;;;;;;;4.10;0.70;;;17.20;99.90;;;;;;5073590;28;20032;-93
2022/07/08 03:10:33;;;;;;;1.95;0.70;;;17.30;99.90;;;;;;5074308;28;20052;-93
2022/07/08 03:12:59;;;;;;;3.10;0.52;;;17.30;99.90;;;;;;5074687;28;20021;-93
2022/07/08 03:15:31;;;;;;;3.67;0.95;;;17.30;99.90;;;;;;5089834;28;20080;-87
2022/07/08 03:17:57;;;;;;;3.65;1.10;;;17.40;99.90;;;;;;5093633;28;20566;-95
2022/07/08 03:20:23;;;;;;;4.65;0.50;;;17.40;99.90;;;;;;5058416;28;20033;-92
2022/07/08 03:22:48;;;;;;;1.30;0.75;;;17.50;99.90;;;;;;5073236;28;20091;-91
2022/07/08 03:25:14;;;;;;;1.65;0.63;;;17.50;99.90;;;;;;5072386;28;20024;-95
2022/07/08 03:27:40;;;;;;;1.20;0.65;;;17.50;99.90;;;;;;5062994;28;20013;-91
2022/07/08 03:30:06;;;;;;;2.20;0.80;;;17.60;99.90;;;;;;5087850;28;20040;-95
2022/07/08 03:32:32;;;;;;;1.55;0.68;;;17.70;99.90;;;;;;5074408;28;20020;-95
2022/07/08 03:34:58;;;;;;;5.50;1.10;;;17.70;99.90;;;;;;5076048;28;20040;-95
2022/07/08 03:37:25;;;;;;;4.07;1.25;;;17.80;99.90;;;;;;5072955;28;20038;-95
2022/07/08 03:39:53;;;;;;;4.43;0.70;;;17.80;99.90;;;;;;5076453;28;20028;-95
2022/07/08 03:42:19;;;;;;;2.08;0.65;;;17.90;99.90;;;;;;5075354;28;20522;-95
2022/07/08 03:44:44;;;;;;;4.10;0.93;;;18.00;99.90;;;;;;5071645;28;20033;-95
2022/07/08 03:47:12;;;;;;;3.70;0.70;;;18.10;99.90;;;;;;5056415;28;20394;-96
2022/07/08 03:49:38;;;;;;;2.00;0.90;;;18.10;99.90;;;;;;5067593;28;20024;-95
2022/07/08 03:52:05;;;;;;;2.78;1.25;;;18.30;99.90;;;;;;5076750;28;20021;-94
2022/07/08 03:54:30;;;;;;;3.70;0.60;;;18.30;99.90;;;;;;5061963;28;20031;-95
2022/07/08 03:56:56;;;;;;;4.30;0.80;;;18.40;99.90;;;;;;5055068;28;20045;-94
2022/07/08 03:59:22;;;;;;;4.43;1.00;;;18.40;99.90;;;;;;5056293;28;20037;-95
2022/07/08 04:01:48;;;;;;;6.15;0.95;;;18.50;99.90;;;;;;5072588;28;20033;-96
2022/07/08 04:04:13;;;;;;;8.02;0.70;;;18.50;99.90;;;;;;5076668;28;20032;-95
2022/07/08 04:06:39;;;;;;;6.30;0.73;;;18.60;99.90;;;;;;5075649;28;20032;-95
2022/07/08 04:09:05;;;;;;;3.80;0.50;;;18.60;99.90;;;;;;5070995;28;20039;-94
2022/07/08 04:11:30;;;;;;;5.03;1.02;;;18.70;99.90;;;;;;5056317;28;20036;-96
2022/07/08 04:13:56;;;;;;;1.65;0.50;;;18.80;99.90;;;;;;5053773;28;20485;-96
2022/07/08 04:16:23;;;;;;;1.95;0.60;;;18.80;99.90;;;;;;5074442;28;20032;-96
2022/07/08 04:18:49;;;;;;;3.28;0.65;;;18.90;99.90;;;;;;5072967;28;20066;-96
2022/07/08 04:21:15;;;;;;;2.15;0.60;;;19.00;99.90;;;;;;5073033;28;20121;-96
2022/07/08 04:23:41;;;;;;;2.78;1.00;;;19.10;99.90;;;;;;5074867;28;20066;-96
2022/07/08 04:26:07;;;;;;;1.40;0.70;;;19.20;99.90;;;;;;5072565;28;20552;-96
2022/07/08 04:28:33;;;;;;;1.65;0.80;;;19.20;99.90;;;;;;5073258;28;20040;-95
2022/07/08 04:30:59;;;;;;;4.45;0.77;;;19.30;99.90;;;;;;5072482;28;20040;-96
2022/07/08 04:33:25;;;;;;;4.32;1.02;;;19.30;99.90;;;;;;5072569;28;20017;-96
2022/07/08 04:35:50;;;;;;;1.52;0.75;;;19.40;99.90;;;;;;5072605;28;20025;-96
2022/07/08 04:38:16;;;;;;;8.27;1.10;;;19.40;99.90;;;;;;5072302;28;20119;-95
2022/07/08 04:40:42;;;;;;;2.22;0.60;;;19.50;99.90;;;;;;5072999;28;20389;-95
2022/07/08 04:43:09;;;;;;;2.75;0.77;;;19.50;99.90;;;;;;5072441;28;20078;-96
2022/07/08 04:45:34;;;;;;;5.20;0.80;;;19.50;99.90;;;;;;5072503;28;20020;-96
2022/07/08 04:48:00;;;;;;;7.60;0.70;;;19.50;99.90;;;;;;5060669;28;20492;-96
2022/07/08 04:50:26;;;;;;;3.83;1.02;;;19.50;99.90;;;;;;5060979;28;20178;-96
2022/07/08 04:52:52;;;;;;;2.78;0.60;;;19.60;99.90;;;;;;5052060;28;20028;-95
2022/07/08 04:55:27;;;;;;;3.67;0.60;;;19.70;99.90;;;;;;5054531;28;20100;-96
2022/07/08 04:58:04;;;;;;;2.10;0.50;;;19.70;99.90;;;;;;5044868;28;20045;-95
2022/07/08 05:00:31;;;;;;;1.95;0.60;;;19.80;99.90;;;;;;5054714;28;20032;-96
2022/07/08 05:02:58;;;;;;;1.73;0.60;;;19.80;99.90;;;;;;5057089;28;20029;-95
2022/07/08 05:05:26;;;;;;;3.90;0.63;;;19.90;99.90;;;;;;5048708;28;20061;-96
2022/07/08 05:07:52;;;;;;;4.85;0.70;;;19.90;99.90;;;;;;5043837;28;20032;-96
2022/07/08 05:10:19;;;;;;;2.78;0.73;;;20.00;99.90;;;;;;5069726;28;20036;-96
2022/07/08 05:12:45;;;;;;;9.40;0.98;;;20.10;99.90;;;;;;5070109;28;20477;-96
2022/07/08 05:15:12;;;;;;;5.30;0.70;;;20.10;99.90;;;;;;5048775;28;20078;-95
2022/07/08 05:17:39;;;;;;;5.70;1.52;;;20.10;99.90;;;;;;5050885;28;20025;-96
2022/07/08 05:20:09;;;;;;;4.60;1.08;;;20.20;99.90;;;;;;5051985;28;20115;-96
2022/07/08 05:22:36;;;;;;;5.32;0.88;;;20.30;99.90;;;;;;5052255;28;20039;-96
2022/07/08 05:25:05;;;;;;;6.35;0.77;;;20.30;99.90;;;;;;5032423;28;20021;-96
2022/07/08 05:27:31;;;;;;;4.85;0.98;;;20.40;99.90;;;;;;5050530;28;20037;-96
2022/07/08 05:29:57;;;;;;;3.72;1.00;;;20.50;99.90;;;;;;5058808;28;20096;-96
2022/07/08 05:32:23;;;;;;;1.38;0.75;;;20.50;99.90;;;;;;5036682;28;20160;-96
2022/07/08 05:34:49;;;;;;;4.03;0.70;;;20.60;99.90;;;;;;5039998;28;20187;-96
2022/07/08 05:37:14;;;;;;;6.43;0.63;;;20.70;99.90;;;;;;5044352;28;20028;-95
2022/07/08 05:39:41;;;;;;;1.42;0.70;;;20.80;99.40;;;;;;5037047;28;20044;-96
2022/07/08 05:42:08;;;;;;;4.15;0.50;;;20.80;99.10;;;;;;5012588;28;20043;-95
2022/07/08 05:44:34;;;;;;;5.95;0.65;;;20.90;99.00;;;;;;5004080;28;20491;-95
2022/07/08 05:47:00;;;;;;;3.60;0.75;;;21.00;98.70;;;;;;5027252;28;20034;-96
2022/07/08 05:49:26;;;;;;;3.80;1.38;;;21.10;98.10;;;;;;5006239;28;20037;-96
2022/07/08 05:51:53;;;;;;;2.05;0.68;;;21.10;97.70;;;;;;5019908;28;20034;-94
2022/07/08 05:54:19;;;;;;;3.83;0.98;;;21.20;97.80;;;;;;5010201;28;20522;-96
2022/07/08 05:56:44;;;;;;;1.67;0.88;;;21.20;97.10;;;;;;5014645;28;20088;-95
2022/07/08 05:59:10;;;;;;;2.38;1.10;;;21.30;96.50;;;;;;5018768;28;20487;-95
2022/07/08 06:04:58;;;;;;;1.33;0.60;;;21.30;95.00;;;;;;5029114;28;20089;-95
2022/07/08 06:07:23;;;;;;;3.03;0.77;;;21.30;95.00;;;;;;5028316;28;20030;-96
2022/07/08 06:09:49;;;;;;;0.95;0.50;;;21.40;95.30;;;;;;5034766;28;20029;-96
2022/07/08 06:12:16;;;;;;;1.48;0.68;;;21.50;95.40;;;;;;5018814;28;20033;-96
2022/07/08 06:14:41;;;;;;;3.05;0.93;;;21.50;95.50;;;;;;5037346;28;20354;-96
2022/07/08 06:17:07;;;;;;;1.55;0.70;;;21.60;95.50;;;;;;5035982;28;20033;-95
2022/07/08 06:19:32;;;;;;;2.40;0.60;;;21.60;95.80;;;;;;5036035;28;20087;-96
2022/07/08 06:21:58;;;;;;;2.22;1.15;;;21.70;95.90;;;;;;5035728;28;20509;-96
2022/07/08 06:24:24;;;;;;;7.45;0.85;;;21.70;95.90;;;;;;5036786;28;20037;-96
2022/07/08 06:26:51;;;;;;;2.40;0.70;;;21.70;95.40;;;;;;5018787;28;20033;-95
2022/07/08 06:32:38;;;;;;;4.70;0.88;;;21.70;96.00;;;;;;5037297;28;20036;-91
2022/07/08 06:35:04;;;;;;;1.80;0.93;;;21.70;95.80;;;;;;5040562;28;20010;-94
2022/07/08 06:37:30;;;;;;;8.27;0.85;;;21.70;95.40;;;;;;5040251;28;20048;-96
2022/07/08 06:39:56;;;;;;;5.63;1.00;;;21.70;95.30;;;;;;5056840;28;20025;-91
2022/07/08 06:42:21;;;;;;;2.95;0.75;;;21.80;95.50;;;;;;5045433;28;20038;-96
2022/07/08 06:44:47;;;;;;;3.60;0.70;;;21.80;95.60;;;;;;5023719;28;20021;-96
2022/07/08 06:47:12;;;;;;;9.52;1.10;;;21.90;95.70;;;;;;5038338;28;20123;-95
2022/07/08 06:49:38;;;;;;;3.30;0.80;;;22.00;95.80;;;;;;5034980;28;20503;-95
2022/07/08 06:52:04;;;;;;;3.72;0.63;;;22.10;95.70;;;;;;5034568;28;20027;-94
2022/07/08 06:54:36;;;;;;;4.50;0.90;;;22.20;95.30;;;;;;5035822;28;20052;-95
2022/07/08 06:57:04;;;;;;;2.05;0.70;;;22.30;95.10;;;;;;5047787;28;20095;-96
2022/07/08 06:59:29;;;;;;;6.75;1.23;;;22.50;94.40;;;;;;5053920;28;20031;-95
2022/07/08 07:01:55;;;;;;;6.68;1.20;;;22.50;93.90;;;;;;5061361;28;20128;-94
2022/07/08 07:04:22;;;;;;;9.85;1.55;;;22.60;93.60;;;;;;5063095;28;20049;-94
2022/07/08 07:06:47;;;;;;;2.85;0.85;;;22.70;93.50;;;;;;5056697;28;20046;-93
2022/07/08 07:09:14;;;;;;;4.20;1.05;;;22.80;93.20;;;;;;5047320;28;20631;-94
2022/07/08 07:11:40;;;;;;;2.15;1.02;;;22.90;93.30;;;;;;5051678;28;20032;-95
2022/07/08 07:14:06;;;;;;;4.57;0.95;;;23.00;93.00;;;;;;5056252;28;20033;-94
2022/07/08 07:16:33;;;;;;;5.13;0.90;;;23.10;92.80;;;;;;5055691;28;20069;-95
2022/07/08 07:18:59;;;;;;;5.05;0.90;;;23.20;92.30;;;;;;5071861;28;20025;-96
2022/07/08 07:21:24;;;;;;;5.20;1.35;;;23.30;92.00;;;;;;5065804;28;20554;-94
2022/07/08 07:23:50;;;;;;;4.32;1.25;;;23.40;91.90;;;;;;5070148;28;20025;-94
2022/07/08 07:26:16;;;;;;;2.25;0.90;;;23.60;91.70;;;;;;5072481;28;20032;-94
2022/07/08 07:28:42;;;;;;;1.88;0.93;;;23.70;91.30;;;;;;5056757;28;20121;-93
2022/07/08 07:31:08;;;;;;;1.17;0.70;;;23.90;91.00;;;;;;5073615;28;20111;-93
2022/07/08 07:33:33;;;;;;;5.75;0.82;;;24.00;90.50;;;;;;5067775;28;20059;-94
2022/07/08 07:35:59;;;;;;;4.85;0.80;;;24.20;90.20;;;;;;5059803;28;20052;-94
2022/07/08 07:38:25;;;;;;;3.78;1.05;;;24.20;90.00;;;;;;5056732;28;20025;-96
2022/07/08 07:40:50;;;;;;;4.05;1.13;;;24.40;87.80;;;;;;5053472;28;20151;-95
2022/07/08 07:43:16;;;;;;;4.50;1.20;;;24.40;86.70;;;;;;5071504;28;20071;-96
2022/07/08 07:45:42;;;;;;;6.63;0.85;;;24.30;86.80;;;;;;5069421;28;20120;-95
2022/07/08 07:48:07;;;;;;;4.53;1.00;;;24.40;86.40;;;;;;5059995;28;20032;-94
2022/07/08 07:50:33;;;;;;;5.80;0.90;;;24.30;84.70;;;;;;5074765;28;20302;-95
2022/07/08 07:52:59;;;;;;;5.50;1.02;;;24.40;85.30;;;;;;5068338;28;20028;-96
2022/07/08 07:55:24;;;;;;;5.30;0.90;;;24.40;82.90;;;;;;5070515;28;20481;-96
2022/07/08 07:57:50;;;;;;;2.10;0.90;;;24.30;82.10;;;;;;5069051;28;20033;-95
2022/07/08 08:00:16;;;;;;;1.60;0.80;;;24.30;82.90;;;;;;5069042;28;20021;-95
2022/07/08 08:02:47;;;;;;;6.68;1.30;;;24.40;83.20;;;;;;5077874;28;20033;-96
2022/07/08 08:05:13;;;;;;;2.85;1.00;;;24.40;83.30;;;;;;5069925;28;20115;-93
2022/07/08 08:07:40;;;;;;;3.83;1.33;;;24.50;83.60;;;;;;5068947;28;20052;-94
2022/07/08 08:10:08;;;;;;;2.00;0.73;;;24.60;82.20;;;;;;5071572;28;20484;-95
2022/07/08 08:12:34;;;;;;;2.28;0.82;;;24.60;82.50;;;;;;5055247;28;20021;-95
2022/07/08 08:15:00;;;;;;;4.22;0.95;;;24.70;82.00;;;;;;5052099;28;20063;-95
2022/07/08 08:17:25;;;;;;;3.33;1.27;;;24.80;81.70;;;;;;5063742;28;20035;-94
2022/07/08 08:19:51;;;;;;;5.30;1.00;;;24.90;80.30;;;;;;5072172;28;20106;-94
2022/07/08 08:22:17;;;;;;;2.13;0.88;;;24.90;79.70;;;;;;5071880;28;20063;-95
2022/07/08 08:24:42;;;;;;;4.05;0.88;;;24.90;79.50;;;;;;5072647;28;20040;-95
2022/07/08 08:27:08;;;;;;;4.43;1.00;;;25.00;79.10;;;;;;5073895;28;20025;-94
2022/07/08 08:29:34;;;;;;;7.40;1.00;;;25.00;77.60;;;;;;5069366;28;20059;-93
2022/07/08 08:32:00;;;;;;;7.32;0.93;;;25.10;76.70;;;;;;5069321;28;20024;-96
2022/07/08 08:34:26;;;;;;;4.38;1.02;;;25.20;76.50;;;;;;5067661;28;20032;-96
2022/07/08 08:36:52;;;;;;;3.63;0.63;;;25.30;75.80;;;;;;5065778;28;20028;-95
2022/07/08 08:39:18;;;;;;;5.05;0.80;;;25.50;75.60;;;;;;5067340;28;20036;-96
2022/07/08 08:41:44;;;;;;;1.95;0.60;;;25.60;74.90;;;;;;5058829;28;20491;-95
2022/07/08 08:44:10;;;;;;;1.88;0.77;;;25.70;74.30;;;;;;5060278;28;20117;-95
2022/07/08 08:46:36;;;;;;;2.22;1.00;;;25.70;73.30;;;;;;5071946;28;20107;-95
2022/07/08 08:49:02;;;;;;;1.60;0.77;;;25.70;72.90;;;;;;5051128;28;20033;-95
2022/07/08 08:51:32;;;;;;;1.63;0.90;;;25.80;71.90;;;;;;5063381;28;20477;-94
2022/07/08 08:53:59;;;;;;;6.45;0.95;;;25.80;71.60;;;;;;5058385;28;20051;-96
2022/07/08 08:56:26;;;;;;;5.75;1.17;;;25.90;71.50;;;;;;5051209;28;20056;-95
2022/07/08 08:58:53;;;;;;;3.47;1.00;;;25.80;73.00;;;;;;5052513;28;20037;-95
2022/07/08 09:01:20;;;;;;;2.50;1.05;;;25.80;72.50;;;;;;5061224;28;20094;-95
2022/07/08 09:03:46;;;;;;;3.33;0.80;;;25.80;71.50;;;;;;5072351;28;20066;-96
2022/07/08 09:06:12;;;;;;;4.60;1.05;;;25.80;70.80;;;;;;5083001;28;20078;-96
2022/07/08 09:08:38;;;;;;;2.33;0.70;;;25.80;71.70;;;;;;5073094;28;20037;-95
2022/07/08 09:11:05;;;;;;;3.78;1.10;;;25.90;70.80;;;;;;5037123;28;20029;-95
2022/07/08 09:13:31;;;;;;;2.03;0.63;;;26.00;70.00;;;;;;5044287;28;20041;-94
2022/07/08 09:15:58;;;;;;;2.88;0.93;;;26.10;69.10;;;;;;5046383;28;20132;-94
2022/07/08 09:18:38;;;;;;;5.07;0.98;;;26.20;66.10;;;;;;5047056;28;20551;-95
2022/07/08 09:21:04;;;;;;;2.33;0.73;;;26.20;63.40;;;;;;5050384;28;20139;-95
2022/07/08 09:23:32;;;;;;;2.58;0.80;;;26.20;62.90;;;;;;5031475;28;20478;-96
2022/07/08 09:26:08;;;;;;;4.50;0.90;;;26.10;62.10;;;;;;5054026;28;20500;-96
2022/07/08 09:28:38;;;;;;;5.22;0.80;;;26.20;61.60;;;;;;5046536;28;20045;-95
2022/07/08 09:31:09;;;;;;;2.63;0.80;;;26.20;60.70;;;;;;5038330;28;20033;-95
2022/07/08 09:33:35;;;;;;;2.28;0.80;;;26.20;60.80;;;;;;5031162;28;20482;-96
2022/07/08 09:36:03;;;;;;;1.98;0.90;;;26.10;60.20;;;;;;5035184;28;20040;-95
2022/07/08 09:38:30;;;;;;;2.33;0.68;;;26.10;61.20;;;;;;5046201;28;20025;-95
2022/07/08 09:41:04;;;;;;;1.55;0.65;;;26.10;60.80;;;;;;5036668;28;20044;-95
2022/07/08 09:43:31;;;;;;;1.65;0.80;;;26.20;61.40;;;;;;5040019;28;20088;-96
2022/07/08 09:46:05;;;;;;;4.47;1.00;;;26.30;61.40;;;;;;5031740;28;20034;-95
2022/07/08 09:48:30;;;;;;;2.05;0.80;;;26.40;60.10;;;;;;5035960;28;20051;-92
2022/07/08 09:50:59;;;;;;;1.90;0.80;;;26.40;60.30;;;;;;5038493;28;20037;-92
2022/07/08 09:53:27;;;;;;;2.08;0.70;;;26.40;59.20;;;;;;5024783;28;20046;-91
2022/07/08 09:55:54;;;;;;;1.38;0.80;;;26.60;59.40;;;;;;5029970;28;20529;-92
2022/07/08 09:58:24;;;;;;;3.28;0.80;;;26.70;57.50;;;;;;5025765;28;20032;-91
2022/07/08 10:00:52;;;;;;;1.73;1.15;;;26.40;57.90;;;;;;5040539;28;20037;-92
2022/07/08 10:03:19;;;;;;;5.03;1.98;;;26.30;59.30;;;;;;5026114;28;20251;-91
2022/07/08 10:05:45;;;;;;;3.30;0.82;;;26.30;60.40;;;;;;5028907;28;20039;-92
2022/07/08 10:08:12;;;;;;;10.82;0.75;;;26.40;61.10;;;;;;5021435;28;20029;-92
2022/07/08 10:10:40;;;;;;;5.07;0.90;;;26.40;61.70;;;;;;5034595;28;20036;-92
2022/07/08 10:13:06;;;;;;;2.40;0.73;;;26.60;61.80;;;;;;5019231;28;20088;-91
2022/07/08 10:15:34;;;;;;;2.67;0.70;;;26.70;62.00;;;;;;5033310;28;20029;-93
2022/07/08 10:18:14;;;;;;;3.72;1.33;;;26.80;61.80;;;;;;5034263;28;20041;-95
2022/07/08 10:20:45;;;;;;;3.65;0.85;;;26.90;61.40;;;;;;5033125;28;20057;-92
2022/07/08 10:23:36;;;;;;;3.08;0.90;;;26.90;61.40;;;;;;5050076;28;20040;-91
2022/07/08 10:26:04;;;;;;;1.58;0.82;;;26.90;59.80;;;;;;5053572;28;20304;-93
2022/07/08 10:28:36;;;;;;;5.40;1.30;;;26.80;59.70;;;;;;5061079;28;20143;-93
2022/07/08 10:31:02;;;;;;;3.03;0.70;;;26.60;60.70;;;;;;5075573;28;20027;-92
2022/07/08 10:33:30;;;;;;;1.73;0.90;;;26.50;61.40;;;;;;5076081;28;20036;-92
2022/07/08 10:36:08;;;;;;;6.65;1.08;;;26.50;61.30;;;;;;5058173;28;20067;-93
2022/07/08 10:38:41;;;;;;;3.92;0.80;;;26.50;60.80;;;;;;5071458;28;20028;-92
2022/07/08 10:41:11;;;;;;;2.90;1.08;;;26.40;60.10;;;;;;5071269;28;20396;-92
2022/07/08 10:43:48;;;;;;;2.88;1.20;;;26.40;59.60;;;;;;5070275;28;20060;-91
2022/07/08 10:46:16;;;;;;;3.88;0.82;;;26.40;60.50;;;;;;5069710;28;20058;-91
2022/07/08 10:48:44;;;;;;;2.17;0.90;;;26.40;59.70;;;;;;5069937;28;20238;-92
2022/07/08 10:51:19;;;;;;;2.13;0.70;;;26.40;59.80;;;;;;5069975;28;20040;-92
2022/07/08 10:54:01;;;;;;;2.28;0.90;;;26.40;60.00;;;;;;5070452;28;20020;-92
2022/07/08 10:56:49;;;;;;;7.45;0.98;;;26.40;60.00;;;;;;5072247;28;20106;-91
2022/07/08 10:59:27;;;;;;;5.85;1.17;;;26.60;58.70;;;;;;5075240;28;20032;-91
2022/07/08 11:02:07;;;;;;;3.55;1.30;;;26.60;58.50;;;;;;5074481;28;20040;-94
2022/07/08 11:04:37;;;;;;;2.13;0.80;;;26.50;58.30;;;;;;5070456;28;20021;-92
2022/07/08 11:07:12;;;;;;;2.88;0.95;;;26.60;58.40;;;;;;5054950;28;20039;-92
2022/07/08 11:09:39;;;;;;;2.17;0.70;;;26.70;58.50;;;;;;5057533;28;20171;-93
2022/07/08 11:12:06;;;;;;;2.47;0.95;;;26.80;58.00;;;;;;5056845;28;20025;-93
2022/07/08 11:14:33;;;;;;;2.90;0.80;;;26.90;58.40;;;;;;5056934;28;20025;-92
2022/07/08 11:16:59;;;;;;;1.50;0.80;;;27.10;58.20;;;;;;5051689;28;20021;-92
2022/07/08 11:19:31;;;;;;;8.73;1.75;;;27.20;57.00;;;;;;5053585;28;20033;-93
2022/07/08 11:22:02;;;;;;;2.10;0.90;;;27.40;56.70;;;;;;5052980;28;20048;-92
2022/07/08 11:24:28;;;;;;;3.20;0.90;;;27.40;56.00;;;;;;5052237;28;20025;-92
2022/07/08 11:26:54;;;;;;;4.70;1.13;;;27.50;55.10;;;;;;5054081;28;20029;-93
2022/07/08 11:29:24;;;;;;;9.00;0.88;;;27.70;54.70;;;;;;5054118;28;20037;-93
2022/07/08 11:31:57;;;;;;;3.67;1.60;;;27.70;54.70;;;;;;5052335;28;20068;-93
2022/07/08 11:34:26;;;;;;;4.97;1.30;;;27.70;54.60;;;;;;5053199;28;20566;-92
2022/07/08 11:37:02;;;;;;;2.63;1.00;;;27.70;54.30;;;;;;5058010;28;20463;-92
2022/07/08 11:39:28;;;;;;;1.60;0.90;;;27.70;53.20;;;;;;5072492;28;20039;-93
2022/07/08 11:41:55;;;;;;;4.07;0.80;;;27.60;54.50;;;;;;5072657;28;20029;-92
2022/07/08 11:44:21;;;;;;;3.80;1.00;;;27.60;54.30;;;;;;5070700;28;20025;-93
2022/07/08 11:46:52;;;;;;;1.27;0.77;;;27.60;54.70;;;;;;5069900;28;20032;-92
2022/07/08 11:49:18;;;;;;;6.18;0.88;;;27.70;55.50;;;;;;5072360;28;20029;-92
2022/07/08 11:51:55;;;;;;;2.03;1.42;;;27.80;55.00;;;;;;5073064;28;20028;-93
2022/07/08 11:54:26;;;;;;;5.40;0.93;;;28.00;53.70;;;;;;5054881;28;20021;-94
2022/07/08 11:56:57;;;;;;;5.75;0.77;;;28.10;53.40;;;;;;5051419;28;20051;-93
2022/07/08 11:59:24;;;;;;;4.03;0.80;;;28.30;52.80;;;;;;5052483;28;20025;-93
2022/07/08 12:01:52;;;;;;;3.85;0.93;;;28.50;53.00;;;;;;5051460;28;20036;-92
2022/07/08 12:04:17;;;;;;;1.85;0.70;;;28.60;51.90;;;;;;5052155;28;20029;-95
2022/07/08 12:06:51;;;;;;;4.35;0.90;;;28.70;50.70;;;;;;5051911;28;20048;-94
2022/07/08 12:09:19;;;;;;;1.95;0.70;;;28.60;50.40;;;;;;5060238;28;20024;-93
2022/07/08 12:11:47;;;;;;;1.42;0.70;;;28.60;49.90;;;;;;5072271;28;20284;-93
2022/07/08 12:14:14;;;;;;;5.25;0.88;;;28.60;48.90;;;;;;5073257;28;20033;-93
2022/07/08 12:16:48;;;;;;;5.38;0.93;;;28.20;49.30;;;;;;5071484;28;20025;-94
2022/07/08 12:19:31;;;;;;;12.13;1.00;;;28.10;50.20;;;;;;5072152;28;20092;-93
2022/07/08 12:21:59;;;;;;;2.35;0.70;;;27.90;49.80;;;;;;5069261;28;20041;-94
2022/07/08 12:24:35;;;;;;;2.35;0.73;;;28.10;49.40;;;;;;5053167;28;20190;-93
2022/07/08 12:27:04;;;;;;;2.72;0.88;;;28.10;49.00;;;;;;5051914;28;20035;-93
2022/07/08 12:29:38;;;;;;;4.82;0.70;;;28.10;49.50;;;;;;5051356;28;20107;-91
2022/07/08 12:32:08;;;;;;;3.38;0.60;;;28.30;49.20;;;;;;5051830;28;20024;-93
2022/07/08 12:34:34;;;;;;;2.72;0.63;;;28.40;49.70;;;;;;5051629;28;20029;-91
2022/07/08 12:37:16;;;;;;;2.00;0.80;;;28.60;49.90;;;;;;5051563;28;20029;-92
2022/07/08 12:39:42;;;;;;;1.13;0.60;;;28.90;48.80;;;;;;5053541;28;20029;-93
2022/07/08 12:42:08;;;;;;;2.58;0.85;;;29.10;47.40;;;;;;5051329;28;20568;-94
2022/07/08 12:44:39;;;;;;;8.70;1.00;;;29.10;47.70;;;;;;5050349;28;20069;-91
2022/07/08 12:47:10;;;;;;;2.13;0.75;;;29.10;48.00;;;;;;5051344;28;20025;-92
2022/07/08 12:49:39;;;;;;;3.83;1.20;;;29.20;48.90;;;;;;5051250;28;20021;-90
2022/07/08 12:52:06;;;;;;;1.42;0.88;;;29.20;47.40;;;;;;5051255;28;20028;-93
2022/07/08 12:54:32;;;;;;;3.38;0.80;;;29.10;48.50;;;;;;5051160;28;20481;-92
2022/07/08 12:56:59;;;;;;;5.93;0.90;;;29.00;48.70;;;;;;5050971;28;20064;-92
2022/07/08 12:59:26;;;;;;;4.53;1.13;;;29.00;48.70;;;;;;5050744;28;20021;-91